GW6976 Weather Reports


time (UTC)temp
F
wind
direction
speed
knots
gust
knots
rain 1hr
in
rain 24hr
in
rain mn
in
humidity
%
barometer
mb
20260510150220 82 47 1.7 3.5 0.00 0.00 0.03 76 1016.0
20260510145720 81 57 1.7 1.7 0.00 0.00 0.03 78 1016.0
20260510145220 81 93 0.0 0.9 0.00 0.00 0.03 78 1016.0
20260510144722 80 96 0.0 0.9 0.00 0.00 0.03 79 1016.0
20260510144221 80 104 0.0 0.9 0.00 0.00 0.03 83 1016.0
20260510143720 80 144 1.7 2.6 0.00 0.00 0.03 80 1016.0
20260510143220 80 43 0.0 1.7 0.00 0.00 0.03 82 1016.0
20260510142721 79 70 0.0 0.9 0.00 0.00 0.03 83 1016.0
20260510142220 79 46 0.0 0.9 0.00 0.00 0.03 85 1016.0
20260510141720 78 134 0.9 2.6 0.00 0.00 0.03 86 1016.0
20260510141220 78 87 0.0 0.9 0.00 0.00 0.03 87 1016.0
20260510140720 77 94 0.9 1.7 0.00 0.00 0.03 90 1016.0
20260510140220 77 209 0.0 0.0 0.00 0.00 0.03 91 1016.0
20260510135720 77 140 1.7 2.6 0.00 0.00 0.03 91 1016.0
20260510135221 76 28 0.9 1.7 0.00 0.00 0.03 92 1016.0
20260510134721 76 140 0.9 1.7 0.00 0.00 0.03 93 1016.0
20260510134220 76 147 0.9 1.7 0.00 0.00 0.03 94 1016.0
20260510133721 76 27 0.9 0.9 0.00 0.00 0.03 94 1016.0
20260510133221 76 25 0.0 0.0 0.00 0.00 0.03 96 1016.0
20260510132720 75 134 0.9 0.9 0.00 0.00 0.03 96 1016.0
20260510132221 75 55 0.0 0.9 0.00 0.00 0.03 96 1016.0
20260510131720 75 54 0.0 1.7 0.00 0.00 0.03 96 1016.0
20260510131220 75 72 0.0 0.9 0.00 0.00 0.03 97 1016.0
20260510130721 75 111 0.0 0.0 0.00 0.00 0.03 97 1016.0
20260510130222 74 148 0.9 0.9 0.00 0.00 0.03 97 1016.0
20260510125720 74 153 0.0 0.9 0.00 0.00 0.03 97 1016.0
20260510125220 74 164 0.9 1.7 0.00 0.00 0.03 98 1015.0
20260510124720 74 144 0.9 0.9 0.00 0.00 0.03 98 1015.0
20260510124220 74 151 0.9 0.9 0.00 0.00 0.03 98 1015.0
20260510123720 73 336 0.0 0.0 0.00 0.00 0.03 98 1015.0
20260510123222 73 336 0.0 0.0 0.00 0.00 0.03 98 1015.0
20260510122721 73 336 0.0 0.0 0.00 0.00 0.03 98 1015.0
20260510122221 73 336 0.0 0.0 0.00 0.00 0.03 98 1015.0
20260510121720 73 336 0.0 0.0 0.00 0.00 0.03 98 1015.0
20260510121221 72 336 0.0 0.0 0.00 0.00 0.03 98 1015.0
20260510120721 72 336 0.0 0.0 0.00 0.00 0.03 98 1015.0
20260510120220 72 336 0.0 0.0 0.00 0.00 0.03 98 1015.0
20260510115720 72 336 0.0 0.0 0.00 0.00 0.03 98 1015.0
20260510115220 71 336 0.0 0.0 0.00 0.00 0.03 98 1015.0
20260510114720 71 336 0.0 0.0 0.00 0.00 0.03 98 1015.0
20260510114220 70 336 0.0 0.0 0.00 0.00 0.03 98 1015.0
20260510113720 70 336 0.0 0.0 0.00 0.00 0.03 98 1015.0
20260510113220 70 336 0.0 0.0 0.00 0.00 0.03 98 1015.0
20260510112720 70 336 0.0 0.0 0.00 0.00 0.03 98 1015.0
20260510112220 70 336 0.0 0.0 0.00 0.00 0.03 98 1014.0
20260510111720 70 336 0.0 0.0 0.00 0.00 0.03 98 1014.0
20260510111223 70 336 0.0 0.0 0.01 0.00 0.03 98 1014.0
20260510110720 69 336 0.0 0.0 0.02 0.00 0.03 98 1014.0
20260510110221 70 336 0.0 0.0 0.02 0.00 0.03 98 1014.0
20260510105720 70 336 0.0 0.0 0.03 0.00 0.03 98 1014.0
20260510105221 70 336 0.0 0.0 0.03 0.00 0.03 98 1014.0
20260510104720 69 336 0.0 0.0 0.03 0.00 0.03 98 1014.0
20260510104221 69 336 0.0 0.0 0.03 0.00 0.03 97 1014.0
20260510103720 69 336 0.0 0.0 0.03 0.00 0.03 97 1014.0
20260510103220 69 336 0.0 0.0 0.03 0.00 0.03 97 1014.0
20260510102720 69 336 0.0 1.7 0.03 0.00 0.03 97 1014.0
20260510102221 70 148 0.0 0.0 0.03 0.00 0.03 97 1014.0
20260510101720 70 148 0.0 0.0 0.03 0.00 0.03 97 1014.0
20260510101220 70 148 0.0 0.0 0.02 0.00 0.03 97 1014.0
20260510100722 70 182 0.0 0.0 0.01 0.00 0.02 97 1014.0
20260510100220 70 248 0.0 0.0 0.01 0.00 0.01 97 1014.0
20260510095720 69 246 0.0 0.0 0.00 0.00 0.00 97 1014.0
20260510095220 69 256 0.0 0.0 0.00 0.00 0.00 97 1014.0
20260510094721 69 256 0.0 0.0 0.00 0.00 0.00 97 1014.0
20260510094220 69 256 0.0 0.0 0.00 0.00 0.00 97 1014.0
20260510093720 69 256 0.0 0.0 0.00 0.00 0.00 97 1013.0
20260510093220 69 256 0.0 0.0 0.00 0.00 0.00 97 1013.0
20260510092720 69 256 0.0 0.0 0.00 0.00 0.00 97 1014.0
20260510092220 69 256 0.0 0.0 0.00 0.00 0.00 97 1013.0
20260510091720 70 256 0.0 0.0 0.00 0.00 0.00 97 1013.0
20260510091220 70 256 0.0 0.0 0.00 0.00 0.00 97 1013.0
20260510090720 70 256 0.0 0.0 0.00 0.00 0.00 97 1013.0
20260510090220 70 256 0.0 0.0 0.00 0.00 0.00 97 1013.0
20260510085720 70 256 0.0 0.0 0.00 0.00 0.00 97 1013.0
20260510085220 70 256 0.0 0.0 0.00 0.00 0.00 97 1013.0
20260510084720 70 256 0.0 0.0 0.00 0.00 0.00 97 1013.0
20260510084220 70 256 0.0 0.0 0.00 0.00 0.00 97 1013.0
20260510083720 70 256 0.0 0.0 0.00 0.00 0.00 97 1013.0
20260510083220 70 256 0.0 0.0 0.00 0.00 0.00 97 1013.0
20260510082720 70 256 0.0 0.0 0.00 0.00 0.00 97 1013.0
20260510082220 70 256 0.0 0.0 0.00 0.00 0.00 97 1013.0
20260510081721 70 256 0.0 0.0 0.00 0.00 0.00 97 1013.0
20260510081222 70 256 0.0 0.0 0.00 0.00 0.00 97 1013.0
20260510080722 70 256 0.0 0.0 0.00 0.00 0.00 97 1013.0
20260510080220 70 256 0.0 0.0 0.00 0.00 0.00 97 1013.0
20260510075721 70 256 0.0 0.0 0.00 0.00 0.00 97 1013.0
20260510075220 70 256 0.0 0.0 0.00 0.00 0.00 97 1013.0
20260510074721 70 256 0.0 0.0 0.00 0.00 0.00 97 1012.0
20260510074221 70 256 0.0 0.0 0.00 0.00 0.00 97 1013.0
20260510073720 70 256 0.0 0.0 0.00 0.00 0.00 97 1012.0
20260510073220 71 256 0.0 0.0 0.00 0.00 0.00 97 1012.0
20260510072720 71 256 0.0 0.0 0.00 0.00 0.00 97 1012.0
20260510072220 71 256 0.0 0.0 0.00 0.00 0.00 97 1012.0
20260510071721 71 256 0.0 0.0 0.00 0.00 0.00 97 1012.0
20260510071220 71 256 0.0 0.0 0.00 0.00 0.00 97 1012.0
20260510070720 71 256 0.0 0.0 0.00 0.00 0.00 97 1012.0
20260510070220 71 256 0.0 0.0 0.00 0.00 0.00 97 1012.0
20260510065721 71 256 0.0 0.0 0.00 0.00 0.00 97 1012.0
20260510065221 71 273 0.0 0.0 0.00 0.00 0.00 97 1012.0
20260510064720 71 273 0.0 0.0 0.00 0.00 0.00 97 1012.0
20260510064220 71 273 0.0 0.0 0.00 0.00 0.00 97 1013.0
20260510063720 71 273 0.0 0.0 0.00 0.00 0.00 97 1013.0
20260510063220 72 273 0.0 0.0 0.00 0.00 0.00 97 1013.0
20260510062721 71 273 0.0 0.0 0.00 0.00 0.00 97 1013.0
20260510062220 71 172 0.0 0.0 0.00 0.00 0.00 97 1013.0
20260510061720 71 172 0.0 0.0 0.00 0.00 0.00 97 1013.0
20260510061220 72 172 0.0 0.0 0.00 0.00 0.00 97 1013.0
20260510060721 71 239 0.0 0.0 0.00 0.00 0.00 97 1013.0
20260510060220 71 109 0.0 0.0 0.00 0.00 0.00 96 1013.0
20260510055720 71 109 0.0 0.0 0.00 0.00 0.00 96 1013.0
20260510055220 72 109 0.0 0.0 0.00 0.00 0.00 96 1014.0
20260510054721 72 173 0.0 0.0 0.00 0.00 0.00 96 1013.0
20260510054220 72 173 0.0 0.0 0.00 0.00 0.00 96 1014.0
20260510053720 72 125 0.0 0.0 0.00 0.00 0.00 96 1014.0
20260510053220 72 125 0.0 0.0 0.00 0.00 0.00 96 1014.0
20260510052720 72 125 0.0 0.0 0.00 0.00 0.00 96 1014.0
20260510052220 72 125 0.0 0.0 0.00 0.00 0.00 96 1014.0
20260510051721 72 125 0.0 0.0 0.00 0.00 0.00 96 1014.0
20260510051220 72 125 0.0 0.0 0.00 0.00 0.00 96 1014.0
20260510050720 72 125 0.0 0.0 0.00 0.00 0.00 96 1014.0
20260510050220 72 154 0.0 0.0 0.00 0.00 0.00 96 1014.0
20260510045720 71 154 0.0 0.0 0.00 0.00 0.00 96 1014.0
20260510045221 71 154 0.0 0.0 0.00 0.00 0.00 96 1014.0
20260510044721 71 154 0.0 0.0 0.00 0.00 0.00 96 1014.0
20260510044220 71 154 0.0 0.0 0.00 0.00 0.00 96 1014.0
20260510043720 71 154 0.0 0.0 0.00 0.00 0.00 96 1014.0
20260510043220 71 154 0.0 0.0 0.00 0.00 0.00 96 1014.0
20260510042720 71 154 0.0 0.9 0.00 0.00 0.00 96 1014.0
20260510042221 71 154 0.0 0.9 0.00 0.00 0.00 96 1014.0
20260510041721 71 154 0.0 0.0 0.00 0.00 0.00 96 1014.0
20260510041220 71 154 0.0 0.0 0.00 0.00 0.00 96 1014.0
20260510040720 71 154 0.0 0.0 0.00 0.00 0.00 96 1014.0
20260510040220 71 154 0.0 0.0 0.00 0.00 0.00 96 1014.0
20260510035720 71 154 0.0 0.0 0.00 0.00 0.26 96 1014.0
20260510035220 72 154 0.0 0.0 0.00 0.00 0.26 96 1014.0
20260510034720 72 154 0.0 0.0 0.00 0.00 0.26 96 1014.0
20260510034220 72 154 0.0 0.0 0.00 0.00 0.26 96 1014.0
20260510033720 72 153 0.0 0.9 0.00 0.00 0.26 96 1014.0
20260510033221 72 154 0.0 0.0 0.00 0.00 0.26 96 1014.0
20260510032720 72 154 0.0 0.0 0.00 0.00 0.26 96 1014.0
20260510032220 71 154 0.0 0.0 0.00 0.00 0.26 96 1014.0
20260510031720 71 154 0.0 0.0 0.00 0.00 0.26 95 1014.0
20260510031220 72 154 0.0 0.0 0.00 0.00 0.26 95 1014.0
20260510030720 72 154 0.0 0.0 0.00 0.00 0.26 95 1014.0
20260510030220 72 154 0.0 0.0 0.00 0.00 0.26 95 1014.0
20260510025720 72 181 0.0 0.0 0.00 0.00 0.26 95 1014.0
20260510025221 72 181 0.0 0.0 0.00 0.00 0.26 95 1014.0
20260510024720 72 184 0.0 0.0 0.00 0.00 0.26 95 1014.0
20260510024220 72 185 0.0 0.0 0.00 0.00 0.26 95 1014.0
20260510023720 72 185 0.0 0.0 0.00 0.00 0.26 95 1014.0
20260510023220 72 185 0.0 1.7 0.00 0.00 0.26 95 1014.0
20260510022720 72 228 0.0 0.0 0.00 0.00 0.26 95 1014.0
20260510022221 72 228 0.0 0.0 0.00 0.00 0.26 95 1014.0
20260510021720 72 228 0.0 0.0 0.00 0.00 0.26 95 1014.0
20260510021220 72 228 0.0 0.0 0.00 0.00 0.26 95 1014.0
20260510020721 72 228 0.0 0.0 0.00 0.00 0.26 95 1014.0
20260510020220 72 229 0.0 0.0 0.00 0.00 0.26 95 1013.0
20260510015720 72 229 0.0 0.0 0.00 0.00 0.26 95 1013.0
20260510015220 72 229 0.0 1.7 0.00 0.00 0.26 95 1013.0
20260510014722 72 228 0.0 0.0 0.00 0.00 0.26 95 1013.0
20260510014220 72 229 0.0 0.0 0.00 0.00 0.26 95 1013.0
20260510013720 72 229 0.0 0.0 0.00 0.00 0.26 94 1013.0
20260510013220 72 229 0.0 0.0 0.00 0.00 0.26 94 1013.0
20260510012721 72 229 0.0 0.0 0.00 0.00 0.26 94 1013.0
20260510012220 72 229 0.0 0.0 0.00 0.00 0.26 94 1013.0
20260510011720 72 229 0.0 0.0 0.00 0.00 0.26 94 1013.0
20260510011220 72 229 0.0 0.0 0.00 0.00 0.26 94 1013.0
20260510010720 72 229 0.0 0.0 0.00 0.00 0.26 94 1013.0
20260510010221 72 229 0.0 0.0 0.00 0.00 0.26 94 1013.0
20260510005721 72 229 0.0 0.0 0.00 0.00 0.26 94 1012.0
20260510005220 72 229 0.9 0.9 0.00 0.00 0.26 94 1013.0
20260510004721 72 225 0.0 0.9 0.00 0.00 0.26 94 1013.0
20260510004220 72 225 0.0 0.0 0.00 0.00 0.26 94 1013.0
20260510003722 72 224 0.0 0.0 0.00 0.00 0.26 94 1013.0
20260510003221 72 224 0.0 0.9 0.00 0.00 0.26 93 1013.0
20260510002721 72 224 0.9 0.9 0.00 0.00 0.26 93 1013.0
20260510002220 72 225 0.0 0.0 0.00 0.00 0.26 93 1013.0
20260510001721 72 225 0.9 1.7 0.00 0.00 0.26 93 1013.0
20260510001220 72 166 0.0 0.0 0.00 0.00 0.26 93 1013.0
20260510000720 72 166 0.0 0.9 0.00 0.00 0.26 92 1013.0
20260510000220 73 236 0.9 1.7 0.00 0.00 0.26 92 1013.0
20260509235722 73 158 0.9 1.7 0.00 0.00 0.26 92 1013.0
20260509235220 73 157 0.9 2.6 0.00 0.00 0.26 92 1013.0
20260509234720 73 226 1.7 2.6 0.00 0.00 0.26 92 1013.0
20260509234220 73 221 0.9 2.6 0.00 0.00 0.26 92 1013.0
20260509233720 73 212 0.9 0.9 0.00 0.00 0.26 92 1013.0
20260509233220 73 150 0.9 2.6 0.00 0.00 0.26 91 1013.0
20260509232720 73 240 1.7 3.5 0.00 0.00 0.26 91 1013.0
20260509232221 74 221 0.9 2.6 0.00 0.00 0.26 91 1013.0
20260509231722 74 245 3.5 5.2 0.00 0.00 0.26 91 1013.0
20260509231220 74 212 2.6 5.2 0.00 0.00 0.26 91 1013.0
20260509230722 75 228 2.6 2.6 0.00 0.00 0.26 91 1013.0
20260509230220 75 234 1.7 2.6 0.00 0.00 0.26 91 1012.0
20260509225720 75 170 0.9 1.7 0.00 0.00 0.26 91 1013.0
20260509225220 75 171 0.9 0.9 0.00 0.00 0.26 91 1013.0
20260509224721 75 170 1.7 1.7 0.00 0.00 0.26 91 1013.0
20260509224220 75 196 0.0 0.9 0.00 0.00 0.26 90 1013.0
20260509223721 75 197 0.9 0.9 0.00 0.00 0.26 90 1013.0
20260509223220 75 194 0.9 0.9 0.00 0.00 0.26 90 1013.0
20260509222720 75 238 0.0 1.7 0.00 0.00 0.26 89 1013.0
20260509222220 75 152 0.0 0.9 0.00 0.00 0.26 90 1013.0
20260509221720 75 162 0.0 0.9 0.00 0.00 0.26 89 1013.0
20260509221220 75 185 0.9 1.7 0.00 0.00 0.26 89 1012.0
20260509220720 75 179 0.9 1.7 0.00 0.00 0.26 89 1013.0
20260509220220 75 190 1.7 2.6 0.00 0.00 0.26 88 1013.0
20260509215720 75 195 0.9 1.7 0.00 0.00 0.26 88 1012.0
20260509215220 76 163 0.9 0.9 0.00 0.00 0.26 88 1012.0
20260509214720 76 140 0.9 1.7 0.00 0.00 0.26 87 1012.0
20260509214220 76 128 1.7 1.7 0.00 0.00 0.26 87 1013.0
20260509213722 76 213 1.7 2.6 0.00 0.00 0.26 87 1012.0
20260509213220 76 157 0.9 1.7 0.01 0.00 0.26 87 1012.0
20260509212720 76 167 1.7 2.6 0.01 0.00 0.26 87 1012.0
20260509212221 76 163 1.7 1.7 0.01 0.00 0.26 88 1012.0
20260509211721 76 133 0.0 0.0 0.02 0.00 0.26 88 1012.0
20260509211221 76 132 0.0 0.0 0.03 0.00 0.26 88 1012.0
20260509210720 77 133 0.0 0.0 0.03 0.00 0.26 89 1012.0
20260509210221 76 130 0.0 0.0 0.03 0.00 0.26 90 1013.0
20260509205721 76 131 0.0 0.0 0.03 0.00 0.26 89 1012.0
20260509205220 76 131 0.0 0.0 0.03 0.00 0.26 89 1012.0
20260509204720 76 134 0.0 0.0 0.03 0.00 0.26 89 1012.0
20260509204220 76 134 0.0 0.0 0.03 0.00 0.26 88 1012.0
20260509203720 76 184 0.0 0.9 0.03 0.00 0.26 88 1012.0
20260509203220 76 214 0.9 1.7 0.02 0.00 0.26 87 1012.0
20260509202720 78 180 3.5 5.2 0.02 0.00 0.25 85 1012.0
20260509202220 79 215 1.7 1.7 0.01 0.00 0.25 84 1012.0
20260509201720 79 134 0.0 0.9 0.00 0.00 0.25 83 1012.0
20260509201220 79 162 1.7 1.7 0.00 0.00 0.23 80 1012.0
20260509200720 80 219 0.9 1.7 0.00 0.00 0.23 79 1012.0
20260509200220 80 188 0.9 0.9 0.00 0.00 0.23 78 1012.0
20260509195720 80 119 0.0 0.9 0.00 0.00 0.23 78 1012.0
20260509195220 80 107 0.0 0.9 0.00 0.00 0.23 78 1012.0
20260509194720 80 152 0.9 1.7 0.00 0.00 0.23 78 1012.0
20260509194220 80 181 0.0 1.7 0.00 0.00 0.23 78 1012.0
20260509193720 80 203 0.0 1.7 0.00 0.00 0.23 78 1012.0
20260509193220 80 182 2.6 2.6 0.00 0.00 0.23 77 1012.0
20260509192720 81 167 1.7 1.7 0.00 0.00 0.23 77 1012.0
20260509192221 81 165 0.0 0.9 0.00 0.00 0.23 77 1012.0
20260509191720 81 153 0.0 0.9 0.00 0.00 0.23 78 1012.0
20260509191221 80 153 0.0 0.9 0.00 0.00 0.23 79 1012.0
20260509190721 80 153 0.0 0.0 0.00 0.00 0.23 78 1012.0
20260509190221 79 153 0.0 0.0 0.00 0.00 0.23 78 1012.0
20260509185720 80 153 1.7 1.7 0.00 0.00 0.23 77 1012.0
20260509185221 80 122 0.9 0.9 0.00 0.00 0.23 77 1012.0
20260509184720 80 122 0.0 0.9 0.00 0.00 0.23 77 1012.0
20260509184220 80 122 0.0 0.0 0.00 0.00 0.23 75 1012.0
20260509183720 81 120 0.0 0.0 0.00 0.00 0.23 74 1012.0
20260509183220 81 120 0.0 0.0 0.00 0.00 0.23 75 1013.0
20260509182723 82 98 0.0 0.9 0.00 0.00 0.23 71 1013.0
20260509182220 82 104 0.0 0.0 0.00 0.00 0.23 71 1012.0
20260509181721 82 101 0.0 0.0 0.00 0.00 0.23 73 1012.0
20260509181221 83 95 0.9 0.9 0.00 0.00 0.23 73 1013.0
20260509180720 83 95 0.9 1.7 0.00 0.00 0.23 70 1013.0
20260509180221 84 58 0.0 1.7 0.00 0.00 0.23 69 1013.0
20260509175720 84 6 0.0 0.9 0.00 0.00 0.23 70 1013.0
20260509175220 84 36 0.0 0.9 0.00 0.00 0.23 69 1013.0
20260509174720 84 85 0.9 0.9 0.00 0.00 0.23 70 1013.0
20260509174220 84 95 1.7 3.5 0.00 0.00 0.23 68 1013.0
20260509173721 83 83 0.0 0.9 0.00 0.00 0.23 72 1013.0
20260509173220 82 69 0.9 0.9 0.00 0.00 0.23 73 1013.0
20260509172720 82 236 0.0 0.9 0.00 0.00 0.23 71 1013.0
20260509172220 83 270 0.0 0.0 0.00 0.00 0.23 70 1013.0
20260509171721 82 84 0.0 0.0 0.00 0.00 0.23 72 1013.0
20260509171220 82 96 1.7 2.6 0.00 0.00 0.23 72 1013.0
20260509170720 82 93 0.0 0.9 0.00 0.00 0.23 73 1013.0
20260509170220 82 92 0.0 0.0 0.00 0.00 0.23 73 1013.0
20260509165721 82 53 0.0 1.7 0.00 0.00 0.23 72 1013.0
20260509165220 82 95 0.0 0.9 0.00 0.00 0.23 72 1013.0
20260509164721 82 81 0.0 0.9 0.00 0.00 0.23 71 1013.0
20260509164220 82 51 0.9 0.9 0.00 0.00 0.23 72 1013.0
20260509163720 82 82 1.7 1.7 0.00 0.00 0.23 72 1013.0
20260509163221 82 70 0.0 1.7 0.00 0.00 0.23 72 1013.0
20260509162720 82 80 0.9 1.7 0.00 0.00 0.23 72 1013.0
20260509162221 82 72 0.9 0.9 0.00 0.00 0.23 72 1013.0
20260509161720 81 87 0.0 0.9 0.00 0.00 0.23 75 1013.0
20260509161221 81 57 0.9 0.9 0.00 0.00 0.23 74 1013.0
20260509160721 82 61 0.9 1.7 0.00 0.00 0.23 73 1014.0
20260509160220 82 281 0.9 1.7 0.00 0.00 0.23 74 1013.0
20260509155720 81 86 0.0 1.7 0.00 0.00 0.23 74 1013.0
20260509155221 81 116 1.7 1.7 0.00 0.00 0.23 76 1013.0
20260509154720 80 93 1.7 2.6 0.00 0.00 0.23 75 1013.0
20260509154221 81 90 1.7 1.7 0.00 0.00 0.23 76 1013.0
20260509153729 81 75 0.0 1.7 0.00 0.00 0.23 76 1013.0
20260509153220 81 64 1.7 2.6 0.00 0.00 0.23 75 1013.0
20260509152720 81 257 0.9 0.9 0.00 0.00 0.23 77 1013.0
20260509152221 80 45 0.9 0.9 0.00 0.00 0.23 76 1013.0
20260509151720 80 60 0.9 0.9 0.00 0.00 0.23 77 1013.0
20260509151220 80 57 0.0 1.7 0.00 0.00 0.23 77 1013.0
20260509150720 80 59 0.0 1.7 0.00 0.00 0.23 77 1013.0